Aérodrome :







RETROUVEZ-NOUS SUR...

 
LOGIN :

S'inscrire | Disclaimer

   EN    FR    IT 

 









Légende :    VFR   VFR Marginal   IFR   IFR Intensif   IFR Très Intensif
Visi : 
Plafond : 
>= 8 km
>= 3000ft
5 à 8 km
1000 à 3000 ft
1500m à 5 km
500 à 1000 ft
800 à 1500m
200 à 500 ft
< 800m
< 200 ft
Symboles :   Orages  Brouillard  Fortes neiges  Fortes précipitations  Vent > 20 kt






- Altitude de l'aérodrome : 232 ft
- Code IATA : YQM


CYQM - Greater Moncton International

DERNIER METAR :
  • 290900Z 24002KT 15SM FEW220 M04/M08 A3024 RMK CI1 SLP245

METARs EXPIRÉS :
  • 290800Z 00000KT 15SM FEW220 M02/M09 A3023 RMK CI1 SLP242
  • 290700Z 04003KT 15SM FEW220 M01/M11 A3021 RMK CI2 SLP234

TAF TAF CYQM
Valide du 29 à 06h jusqu'au 30 à 06h UTC


290538Z 2906/3006 23005KT P6SM SKC
BECMG 2907/2909 27005KT
BECMG 2914/2916 05012KT
FM292000 06010KT P6SM BKN220
FM292300 06008KT P6SM OVC170 RMK NXT FCST BY 291200Z



MET'MAP, la Météo Aéronautique d'un coup d'oeil ! - Copyright ORBIFLY Décembre 2007 - Disclaimer

ORBIFLY MET'MAP TEAM :

Programmation & Développement : Alexandra Zaïnal
Sur une idée originale de : Baudouin d'Aumeries
Assistance à la programmation : Marc-Olivier Méhu
Soutien technique & logistique : Manuel Goepfert

Contact : metmap@orbifly.com




SOURCES & CREDITS :

   NOAA